createdAt,value
2023-03-24T00:01:56.336Z,70.24
2023-03-24T00:04:25.256Z,69.44
2023-03-24T00:06:52.658Z,69.90
2023-03-24T00:09:19.828Z,69.63
2023-03-24T00:11:46.566Z,68.74
2023-03-24T00:14:13.391Z,69.94
2023-03-24T00:16:45.667Z,69.71
2023-03-24T00:19:16.084Z,71.01
2023-03-24T00:21:43.184Z,71.05
2023-03-24T00:24:11.780Z,69.54
2023-03-24T00:26:40.390Z,69.97
2023-03-24T00:29:09.485Z,68.58
2023-03-24T00:31:40.258Z,70.42
2023-03-24T00:34:10.482Z,69.33
2023-03-24T00:36:37.566Z,69.19
2023-03-24T00:39:06.557Z,68.71
2023-03-24T00:41:33.907Z,68.85
2023-03-24T00:44:03.915Z,69.04
2023-03-24T00:46:30.839Z,68.49
2023-03-24T00:49:03.907Z,67.45
2023-03-24T00:51:32.784Z,67.59
2023-03-24T00:53:59.597Z,68.27
2023-03-24T00:56:27.271Z,67.40
2023-03-24T00:58:57.905Z,67.61
2023-03-24T01:01:26.387Z,67.97
2023-03-24T01:03:53.737Z,66.93
2023-03-24T01:06:22.524Z,66.86
2023-03-24T01:08:53.946Z,66.20
2023-03-24T01:11:22.666Z,66.35
2023-03-24T01:13:49.889Z,65.76
2023-03-24T01:16:16.899Z,66.11
2023-03-24T01:18:43.792Z,65.60
2023-03-24T01:21:12.222Z,65.84
2023-03-24T01:23:39.910Z,65.38
2023-03-24T01:26:08.949Z,65.20
2023-03-24T01:28:40.959Z,65.16
2023-03-24T01:31:10.075Z,65.04
2023-03-24T01:33:38.286Z,65.04
2023-03-24T01:36:06.403Z,64.51
2023-03-24T01:38:33.934Z,65.75
2023-03-24T01:41:00.689Z,64.99
2023-03-24T01:43:32.757Z,65.30
2023-03-24T01:46:05.433Z,66.16
2023-03-24T01:48:46.623Z,65.63
2023-03-24T01:51:16.865Z,64.87
2023-03-24T01:53:58.917Z,65.50
2023-03-24T01:56:27.326Z,65.72
2023-03-24T01:58:58.322Z,66.01
2023-03-24T02:01:47.908Z,67.07
2023-03-24T02:04:38.905Z,67.51
2023-03-24T02:07:23.278Z,67.72
2023-03-24T02:09:50.013Z,68.25
2023-03-24T02:12:16.987Z,68.66
2023-03-24T02:14:44.014Z,69.25
2023-03-24T02:17:21.787Z,69.71
2023-03-24T02:20:28.902Z,69.72
2023-03-24T02:23:06.936Z,69.24
2023-03-24T02:25:58.037Z,68.49
2023-03-24T02:28:39.997Z,68.09
2023-03-24T02:31:16.383Z,67.34
2023-03-24T02:34:10.380Z,66.83
2023-03-24T02:36:59.623Z,67.01
2023-03-24T02:39:51.841Z,66.10
2023-03-24T02:42:46.675Z,66.14
2023-03-24T02:45:19.367Z,65.91
2023-03-24T02:48:10.925Z,65.93
2023-03-24T02:50:48.530Z,66.10
2023-03-24T02:53:32.423Z,65.73
2023-03-24T02:56:30.217Z,64.92
2023-03-24T02:59:07.969Z,64.43
2023-03-24T03:01:54.855Z,63.62
2023-03-24T03:04:50.276Z,62.42
2023-03-24T03:07:22.357Z,62.98
2023-03-24T03:10:02.239Z,61.95
2023-03-24T03:12:33.060Z,61.61
2023-03-24T03:15:04.258Z,61.84
2023-03-24T03:17:34.404Z,61.73
2023-03-24T03:20:11.458Z,61.35
2023-03-24T03:22:43.369Z,61.91
2023-03-24T03:25:12.195Z,61.30
2023-03-24T03:27:40.571Z,61.83
2023-03-24T03:30:21.409Z,62.46
2023-03-24T03:32:55.982Z,62.48
2023-03-24T03:35:43.624Z,62.80
2023-03-24T03:38:22.082Z,62.66
2023-03-24T03:40:55.835Z,63.59
2023-03-24T03:43:30.997Z,63.34
2023-03-24T03:45:59.450Z,63.55
2023-03-24T03:48:32.593Z,63.67
2023-03-24T03:51:12.405Z,63.51
2023-03-24T03:53:49.192Z,62.59
2023-03-24T03:56:21.177Z,63.03
2023-03-24T03:58:58.762Z,63.50
2023-03-24T04:01:28.170Z,63.56
2023-03-24T04:08:05.887Z,63.26
2023-03-24T04:11:29.743Z,62.77
2023-03-24T04:14:17.707Z,63.38
2023-03-24T04:16:55.052Z,62.90
2023-03-24T04:19:56.003Z,62.53
2023-03-24T04:22:55.877Z,62.78
2023-03-24T04:25:29.347Z,63.00
2023-03-24T04:28:08.006Z,62.11
2023-03-24T04:30:56.226Z,62.68
2023-03-24T04:33:39.333Z,61.70
2023-03-24T04:36:19.230Z,61.82
2023-03-24T04:39:06.292Z,61.22
2023-03-24T04:41:39.846Z,60.63
2023-03-24T04:44:17.716Z,60.05
2023-03-24T04:47:06.050Z,60.11
2023-03-24T04:49:32.835Z,60.10
2023-03-24T04:51:59.527Z,59.88
2023-03-24T04:54:28.419Z,59.90
2023-03-24T04:57:03.216Z,60.22
2023-03-24T04:59:34.793Z,60.25
2023-03-24T05:02:05.036Z,59.35
2023-03-24T05:04:42.225Z,60.41
2023-03-24T05:07:23.380Z,60.15
2023-03-24T05:09:54.969Z,59.93
2023-03-24T05:12:21.937Z,60.20
2023-03-24T05:15:09.295Z,59.98
2023-03-24T05:17:36.762Z,60.03
2023-03-24T05:20:10.824Z,59.64
2023-03-24T05:22:39.467Z,59.84
2023-03-24T05:25:06.858Z,59.88
2023-03-24T05:27:33.633Z,60.22
2023-03-24T05:30:10.658Z,62.02
2023-03-24T05:32:38.149Z,64.23
2023-03-24T05:35:05.529Z,65.59
2023-03-24T05:37:34.031Z,67.49
2023-03-24T05:40:02.160Z,68.27
2023-03-24T05:42:37.575Z,69.89
2023-03-24T05:45:05.469Z,69.57
2023-03-24T05:47:32.789Z,71.12
2023-03-24T05:49:59.496Z,71.33
2023-03-24T05:52:28.871Z,71.91
2023-03-24T05:55:05.621Z,72.29
2023-03-24T05:57:32.450Z,72.48
2023-03-24T06:00:18.799Z,72.45
2023-03-24T06:02:53.806Z,73.25
2023-03-24T06:05:27.861Z,73.60
2023-03-24T06:07:58.963Z,74.00
2023-03-24T06:10:28.406Z,74.21
2023-03-24T06:12:56.635Z,74.40
2023-03-24T06:15:28.199Z,74.79
2023-03-24T06:18:01.428Z,75.22
2023-03-24T06:20:34.337Z,76.41
2023-03-24T06:23:05.596Z,76.57
2023-03-24T06:25:45.076Z,76.56
2023-03-24T06:28:26.254Z,77.41
2023-03-24T06:30:56.824Z,77.07
2023-03-24T06:33:31.270Z,77.15
2023-03-24T06:36:01.241Z,77.12
2023-03-24T06:38:29.800Z,76.77
2023-03-24T06:41:01.443Z,76.62
2023-03-24T06:43:28.641Z,76.33
2023-03-24T06:45:55.550Z,76.88
2023-03-24T06:48:23.976Z,76.67
2023-03-24T06:50:55.138Z,75.49
2023-03-24T06:53:22.777Z,74.91
2023-03-24T06:55:50.219Z,75.30
2023-03-24T06:58:18.513Z,75.57
2023-03-24T07:01:01.888Z,75.58
2023-03-24T07:03:48.996Z,76.20
2023-03-24T07:06:16.113Z,76.36
2023-03-24T07:08:44.855Z,76.29
2023-03-24T07:11:11.811Z,76.64
2023-03-24T07:13:46.759Z,76.07
2023-03-24T07:16:13.551Z,76.77
2023-03-24T07:18:41.304Z,77.16
2023-03-24T07:21:08.583Z,76.89
2023-03-24T07:23:36.792Z,77.41
2023-03-24T07:26:11.375Z,78.14
2023-03-24T07:28:47.675Z,78.61
2023-03-24T07:31:24.792Z,79.95
2023-03-24T07:34:01.050Z,80.46
2023-03-24T07:36:28.758Z,80.71
2023-03-24T07:38:57.006Z,81.32
2023-03-24T07:41:30.246Z,81.87
2023-03-24T07:44:02.192Z,81.91
2023-03-24T07:46:40.227Z,82.54
2023-03-24T07:49:18.261Z,83.09
2023-03-24T07:51:51.788Z,83.88
2023-03-24T07:54:25.223Z,84.35
2023-03-24T07:56:53.461Z,83.80
2023-03-24T07:59:20.618Z,83.96
2023-03-24T08:01:54.865Z,84.35
2023-03-24T08:04:35.004Z,84.15
2023-03-24T08:07:09.093Z,84.35
2023-03-24T08:09:36.111Z,84.62
2023-03-24T08:12:13.491Z,84.49
2023-03-24T08:14:46.594Z,85.19
2023-03-24T08:17:13.278Z,84.64
2023-03-24T08:19:52.053Z,85.14
2023-03-24T08:22:23.119Z,85.63
2023-03-24T08:24:49.830Z,85.73
2023-03-24T08:27:17.210Z,85.74
2023-03-24T08:29:44.079Z,85.29
2023-03-24T08:32:10.807Z,85.31
2023-03-24T08:34:37.548Z,85.29
2023-03-24T08:37:04.901Z,85.27
2023-03-24T08:39:32.749Z,85.49
2023-03-24T08:41:59.509Z,85.55
2023-03-24T08:44:26.363Z,85.71
2023-03-24T08:46:54.140Z,85.52
2023-03-24T08:49:21.554Z,85.19
2023-03-24T08:51:48.261Z,84.61
2023-03-24T08:54:15.042Z,84.35
2023-03-24T08:56:41.917Z,84.18
2023-03-24T08:59:08.804Z,84.13
2023-03-24T09:01:35.601Z,83.68
2023-03-24T09:04:02.707Z,83.84
2023-03-24T09:06:29.477Z,83.27
2023-03-24T09:08:56.370Z,84.19
2023-03-24T09:11:23.544Z,83.42
2023-03-24T09:13:50.352Z,82.75
2023-03-24T09:16:18.142Z,82.25
2023-03-24T09:18:45.101Z,81.86
2023-03-24T09:21:12.230Z,81.87
2023-03-24T09:23:39.036Z,81.40
2023-03-24T09:26:07.192Z,80.94
2023-03-24T09:28:34.395Z,81.35
2023-03-24T09:31:04.009Z,81.20
2023-03-24T09:33:30.971Z,81.35
2023-03-24T09:36:00.553Z,80.19
2023-03-24T09:38:28.479Z,80.62
2023-03-24T09:41:01.022Z,80.28
2023-03-24T09:43:34.481Z,79.98
2023-03-24T09:46:02.550Z,79.57
2023-03-24T09:48:39.834Z,79.71
2023-03-24T09:51:24.976Z,78.75
2023-03-24T09:54:01.184Z,77.23
2023-03-24T09:56:30.960Z,78.00
2023-03-24T09:59:05.204Z,77.46
2023-03-24T10:01:31.959Z,76.87
2023-03-24T10:04:00.315Z,77.91
2023-03-24T10:06:31.241Z,77.68
2023-03-24T10:09:19.327Z,75.88
2023-03-24T10:11:48.729Z,76.57
2023-03-24T10:14:39.981Z,75.74
2023-03-24T10:17:24.832Z,74.57
2023-03-24T10:20:29.363Z,74.47
2023-03-24T10:23:19.604Z,72.54
2023-03-24T10:25:57.506Z,74.23
2023-03-24T10:28:28.357Z,73.72
2023-03-24T10:30:56.598Z,73.89
2023-03-24T10:33:23.470Z,73.14
2023-03-24T10:36:20.797Z,73.36
2023-03-24T10:38:47.986Z,73.33
2023-03-24T10:41:18.689Z,72.80
2023-03-24T10:43:45.796Z,72.41
2023-03-24T10:46:18.712Z,73.79
2023-03-24T10:48:48.848Z,73.29
2023-03-24T10:51:18.775Z,72.11
2023-03-24T10:53:48.816Z,71.89
2023-03-24T10:56:17.986Z,70.60
2023-03-24T10:58:46.196Z,69.45
2023-03-24T11:01:26.499Z,68.63
2023-03-24T11:03:59.641Z,68.47
2023-03-24T11:06:26.787Z,66.66
2023-03-24T11:09:19.155Z,66.56
2023-03-24T11:11:46.482Z,66.73
2023-03-24T11:14:44.503Z,66.95
2023-03-24T11:17:15.526Z,66.56
2023-03-24T11:19:55.223Z,66.45
2023-03-24T11:22:22.168Z,65.62
2023-03-24T11:24:55.141Z,66.60
2023-03-24T11:27:21.861Z,65.78
2023-03-24T11:29:55.621Z,65.33
2023-03-24T11:32:28.187Z,66.00
2023-03-24T11:35:09.230Z,65.87
2023-03-24T11:37:36.782Z,64.23
2023-03-24T11:40:12.546Z,64.35
2023-03-24T11:42:46.037Z,63.46
2023-03-24T11:45:39.548Z,64.43
2023-03-24T11:48:17.939Z,63.71
2023-03-24T11:50:45.723Z,63.46
2023-03-24T11:53:17.257Z,64.57
2023-03-24T11:55:53.850Z,63.52
2023-03-24T11:58:32.778Z,64.28
2023-03-24T12:01:21.618Z,64.54
2023-03-24T12:04:12.796Z,64.27
2023-03-24T12:07:01.535Z,63.55
2023-03-24T12:09:37.636Z,63.36
2023-03-24T12:12:16.343Z,63.20
2023-03-24T12:14:48.038Z,62.81
2023-03-24T12:17:17.102Z,63.34
2023-03-24T12:19:50.154Z,63.08
2023-03-24T12:22:29.129Z,63.35
2023-03-24T12:25:04.316Z,62.54
2023-03-24T12:27:39.588Z,62.61
2023-03-24T12:30:16.158Z,61.33
2023-03-24T12:32:54.341Z,61.40
2023-03-24T12:35:24.246Z,61.09
2023-03-24T12:38:16.580Z,61.96
2023-03-24T12:41:09.923Z,61.38
2023-03-24T12:43:58.458Z,61.21
2023-03-24T12:46:47.816Z,61.00
2023-03-24T12:49:24.023Z,61.08
2023-03-24T12:52:08.451Z,61.50
2023-03-24T12:55:03.059Z,61.59
2023-03-24T12:57:33.323Z,61.58
2023-03-24T13:00:08.513Z,61.67
2023-03-24T13:02:39.146Z,61.66
2023-03-24T13:05:07.339Z,61.51
2023-03-24T13:07:39.429Z,60.61
2023-03-24T13:10:14.504Z,60.41
2023-03-24T13:13:09.332Z,60.65
2023-03-24T13:15:45.103Z,60.32
2023-03-24T13:18:11.860Z,59.98
2023-03-24T13:21:04.701Z,59.84
2023-03-24T13:23:35.610Z,60.02
2023-03-24T13:26:05.513Z,60.92
2023-03-24T13:28:40.467Z,60.81
2023-03-24T13:31:08.658Z,60.37
2023-03-24T13:33:36.736Z,62.04
2023-03-24T13:36:46.391Z,64.03
2023-03-24T13:39:16.797Z,65.62
2023-03-24T13:41:50.046Z,66.25
2023-03-24T13:44:23.493Z,66.68
2023-03-24T13:47:10.521Z,68.07
2023-03-24T13:49:37.428Z,72.20
2023-03-24T13:52:06.847Z,74.55
2023-03-24T13:54:38.506Z,75.52
2023-03-24T13:57:20.657Z,76.42
2023-03-24T14:00:25.026Z,76.11
2023-03-24T14:02:58.466Z,76.45
2023-03-24T14:05:59.051Z,75.30
2023-03-24T14:08:53.773Z,75.37
2023-03-24T14:11:32.730Z,75.94
2023-03-24T14:14:26.922Z,75.09
2023-03-24T14:17:08.877Z,74.88
2023-03-24T14:19:43.148Z,74.63
2023-03-24T14:22:16.276Z,76.70
2023-03-24T14:24:46.054Z,77.16
2023-03-24T14:27:29.429Z,77.50
2023-03-24T14:30:01.022Z,78.05
2023-03-24T14:32:27.856Z,78.12
2023-03-24T14:34:59.327Z,77.70
2023-03-24T14:37:29.437Z,78.35
2023-03-24T14:39:57.629Z,78.35
2023-03-24T14:42:28.662Z,77.73
2023-03-24T14:44:57.525Z,76.69
2023-03-24T14:47:30.974Z,77.13
2023-03-24T14:50:00.503Z,78.18
2023-03-24T14:52:40.058Z,79.00
2023-03-24T14:55:09.710Z,79.59
2023-03-24T14:57:40.946Z,83.04
2023-03-24T15:00:15.066Z,83.21
2023-03-24T15:02:44.384Z,84.35
2023-03-24T15:05:14.174Z,85.06
2023-03-24T15:07:41.888Z,84.92
2023-03-24T15:10:16.542Z,85.33
2023-03-24T15:12:47.957Z,86.42
2023-03-24T15:15:23.372Z,86.12
2023-03-24T15:17:51.583Z,86.85
2023-03-24T15:20:23.031Z,86.32
2023-03-24T15:22:51.217Z,86.19
2023-03-24T15:25:17.911Z,86.69
2023-03-24T15:27:54.129Z,86.28
2023-03-24T15:30:21.255Z,86.13
2023-03-24T15:32:49.538Z,86.22
2023-03-24T15:35:20.341Z,85.93
2023-03-24T15:37:51.883Z,85.99
2023-03-24T15:40:32.008Z,85.67
2023-03-24T15:43:16.693Z,85.59
2023-03-24T15:45:51.045Z,85.32
2023-03-24T15:48:27.089Z,85.24
2023-03-24T15:51:04.512Z,85.59
2023-03-24T15:53:50.019Z,85.63
2023-03-24T15:56:26.169Z,85.45
2023-03-24T15:58:59.745Z,85.12
2023-03-24T16:01:31.713Z,85.22
2023-03-24T16:04:00.965Z,85.57
2023-03-24T16:06:30.523Z,85.58
2023-03-24T16:09:01.476Z,85.76
2023-03-24T16:11:29.405Z,85.87
2023-03-24T16:13:56.858Z,85.63
2023-03-24T16:16:28.842Z,85.72
2023-03-24T16:18:59.667Z,85.87
2023-03-24T16:21:28.905Z,85.48
2023-03-24T16:23:57.203Z,85.16
2023-03-24T16:26:25.911Z,85.42
2023-03-24T16:28:53.878Z,85.26
2023-03-24T16:31:32.490Z,84.65
2023-03-24T16:33:59.589Z,84.51
2023-03-24T16:36:26.960Z,84.23
2023-03-24T16:38:55.537Z,84.06
2023-03-24T16:41:22.487Z,83.51
2023-03-24T16:43:49.286Z,83.30
2023-03-24T16:46:19.111Z,83.42
2023-03-24T16:48:46.055Z,83.42
2023-03-24T16:51:15.027Z,83.41
2023-03-24T16:53:42.972Z,82.96
2023-03-24T16:56:10.758Z,83.18
2023-03-24T16:58:37.504Z,83.12
2023-03-24T17:01:17.722Z,82.71
2023-03-24T17:03:44.855Z,82.49
2023-03-24T17:06:12.438Z,82.05
2023-03-24T17:08:39.160Z,81.63
2023-03-24T17:11:05.949Z,81.89
2023-03-24T17:13:32.704Z,81.42
2023-03-24T17:15:59.470Z,81.41
2023-03-24T17:18:26.395Z,81.59
2023-03-24T17:20:53.267Z,81.55
2023-03-24T17:23:20.154Z,81.48
2023-03-24T17:25:46.931Z,81.84
2023-03-24T17:28:15.816Z,82.07
2023-03-24T17:30:43.004Z,81.61
2023-03-24T17:33:13.605Z,81.88
2023-03-24T17:35:40.487Z,82.16
2023-03-24T17:38:07.238Z,82.07
2023-03-24T17:40:33.957Z,82.04
2023-03-24T17:43:00.722Z,82.02
2023-03-24T17:45:27.799Z,82.13
2023-03-24T17:47:55.563Z,82.10
2023-03-24T17:50:22.588Z,81.96
2023-03-24T17:52:50.010Z,81.69
2023-03-24T17:55:17.358Z,81.65
2023-03-24T17:57:44.787Z,81.83
2023-03-24T18:00:13.378Z,81.73
2023-03-24T18:02:40.924Z,81.53
2023-03-24T18:05:08.333Z,81.14
2023-03-24T18:07:36.161Z,81.28
2023-03-24T18:10:03.699Z,81.08
2023-03-24T18:12:31.119Z,80.69
2023-03-24T18:14:57.891Z,80.43
2023-03-24T18:17:24.672Z,80.29
2023-03-24T18:19:51.761Z,80.40
2023-03-24T18:22:18.533Z,80.35
2023-03-24T18:24:45.347Z,80.23
2023-03-24T18:27:12.061Z,80.27
2023-03-24T18:29:39.126Z,80.46
2023-03-24T18:32:06.378Z,80.89
2023-03-24T18:34:33.435Z,80.06
2023-03-24T18:37:00.142Z,80.18
2023-03-24T18:39:27.194Z,80.04
2023-03-24T18:41:54.043Z,79.70
2023-03-24T18:44:21.790Z,79.92
2023-03-24T18:46:49.202Z,79.83
2023-03-24T18:49:15.924Z,79.61
2023-03-24T18:51:43.685Z,79.98
2023-03-24T18:54:11.909Z,80.11
2023-03-24T18:56:38.640Z,79.84
2023-03-24T18:59:05.456Z,80.03
2023-03-24T19:01:33.178Z,79.73
2023-03-24T19:04:00.206Z,79.60
2023-03-24T19:06:31.331Z,79.46
2023-03-24T19:08:59.545Z,79.37
2023-03-24T19:11:26.816Z,79.76
2023-03-24T19:13:56.076Z,79.80
2023-03-24T19:16:22.860Z,79.59
2023-03-24T19:18:50.809Z,79.22
2023-03-24T19:21:18.544Z,79.42
2023-03-24T19:23:46.992Z,78.89
2023-03-24T19:26:16.295Z,79.26
2023-03-24T19:28:43.686Z,78.79
2023-03-24T19:31:13.276Z,78.64
2023-03-24T19:33:40.122Z,78.91
2023-03-24T19:36:07.843Z,78.62
2023-03-24T19:38:36.166Z,78.57
2023-03-24T19:41:11.710Z,78.46
2023-03-24T19:43:38.878Z,78.66
2023-03-24T19:46:06.611Z,78.45
2023-03-24T19:48:34.332Z,78.36
2023-03-24T19:51:01.243Z,78.26
2023-03-24T19:53:29.615Z,78.05
2023-03-24T19:55:58.655Z,77.87
2023-03-24T19:58:25.931Z,77.69
2023-03-24T20:00:53.092Z,77.85
2023-03-24T20:03:20.309Z,77.59
2023-03-24T20:05:47.659Z,78.67
2023-03-24T20:08:14.502Z,79.54
2023-03-24T20:10:41.526Z,79.62
2023-03-24T20:13:09.230Z,77.81
2023-03-24T20:15:36.444Z,77.28
2023-03-24T20:18:03.252Z,77.00
2023-03-24T20:20:30.077Z,76.68
2023-03-24T20:22:57.531Z,76.84
2023-03-24T20:25:24.262Z,77.04
2023-03-24T20:27:51.095Z,77.25
2023-03-24T20:30:18.865Z,77.09
2023-03-24T20:32:45.731Z,76.54
2023-03-24T20:35:12.596Z,76.51
2023-03-24T20:37:39.477Z,76.38
2023-03-24T20:40:09.430Z,76.29
2023-03-24T20:42:36.770Z,76.59
2023-03-24T20:45:04.616Z,76.25
2023-03-24T20:47:31.381Z,75.96
2023-03-24T20:49:58.158Z,76.05
2023-03-24T20:52:24.988Z,76.44
2023-03-24T20:54:52.222Z,76.61
2023-03-24T20:57:19.460Z,76.01
2023-03-24T20:59:49.140Z,75.87
2023-03-24T21:02:16.145Z,75.78
2023-03-24T21:04:43.096Z,76.16
2023-03-24T21:07:09.990Z,75.58
2023-03-24T21:09:36.823Z,75.71
2023-03-24T21:12:06.728Z,75.94
2023-03-24T21:14:34.245Z,76.13
2023-03-24T21:17:01.687Z,76.06
2023-03-24T21:19:29.035Z,76.41
2023-03-24T21:21:56.366Z,76.58
2023-03-24T21:24:24.383Z,76.52
2023-03-24T21:26:51.646Z,76.26
2023-03-24T21:29:18.476Z,76.24
2023-03-24T21:31:45.165Z,76.04
2023-03-24T21:34:12.040Z,76.06
2023-03-24T21:36:38.801Z,75.73
2023-03-24T21:39:07.741Z,76.02
2023-03-24T21:41:34.519Z,76.05
2023-03-24T21:44:01.239Z,75.96
2023-03-24T21:46:28.176Z,75.32
2023-03-24T21:48:55.972Z,75.74
2023-03-24T21:51:25.422Z,75.07
2023-03-24T21:53:55.897Z,75.57
2023-03-24T21:56:23.328Z,75.53
2023-03-24T21:58:50.055Z,75.67
2023-03-24T22:01:16.871Z,75.34
2023-03-24T22:03:43.661Z,75.33
2023-03-24T22:06:10.806Z,74.86
2023-03-24T22:08:39.157Z,75.12
2023-03-24T22:11:06.532Z,74.83
2023-03-24T22:13:33.943Z,75.33
2023-03-24T22:16:03.105Z,74.86
2023-03-24T22:18:32.135Z,75.05
2023-03-24T22:21:04.446Z,75.45
2023-03-24T22:23:36.845Z,74.88
2023-03-24T22:26:06.469Z,75.35
2023-03-24T22:28:34.214Z,74.25
2023-03-24T22:31:02.391Z,74.35
2023-03-24T22:33:29.198Z,74.28
2023-03-24T22:35:57.885Z,74.38
2023-03-24T22:38:25.167Z,74.18
2023-03-24T22:40:56.448Z,74.10
2023-03-24T22:43:23.621Z,74.58
2023-03-24T22:45:50.559Z,74.67
2023-03-24T22:48:17.525Z,74.48
2023-03-24T22:50:44.262Z,74.24
2023-03-24T22:53:12.207Z,74.12
2023-03-24T22:55:42.297Z,75.35
2023-03-24T22:58:09.317Z,77.08
2023-03-24T23:00:36.671Z,78.52
2023-03-24T23:03:04.042Z,79.61
2023-03-24T23:05:31.459Z,80.77
2023-03-24T23:07:59.454Z,80.62
2023-03-24T23:10:27.495Z,81.05
2023-03-24T23:12:54.548Z,81.51
2023-03-24T23:15:23.408Z,81.59
2023-03-24T23:17:51.703Z,81.54
2023-03-24T23:20:20.082Z,81.76
2023-03-24T23:22:48.008Z,83.38
2023-03-24T23:25:15.000Z,84.03
2023-03-24T23:27:42.136Z,83.62
2023-03-24T23:30:11.088Z,82.23
2023-03-24T23:32:41.462Z,83.22
2023-03-24T23:35:09.164Z,82.50
2023-03-24T23:37:36.910Z,82.64
2023-03-24T23:40:15.774Z,83.13
2023-03-24T23:42:47.082Z,82.68
2023-03-24T23:45:18.173Z,83.34
2023-03-24T23:47:49.531Z,82.85
2023-03-24T23:50:17.439Z,82.48
2023-03-24T23:52:44.241Z,82.11
2023-03-24T23:55:12.725Z,81.38
2023-03-24T23:57:40.780Z,81.94
